createdAt,value
2016-10-08T00:01:31.181Z,99.99
2016-10-08T00:02:12.869Z,99.99
2016-10-08T00:02:54.547Z,99.99
2016-10-08T00:03:36.224Z,99.99
2016-10-08T00:05:51.462Z,99.99
2016-10-08T00:06:33.251Z,99.99
2016-10-08T00:08:33.489Z,99.99
2016-10-08T00:09:15.081Z,99.99
2016-10-08T00:09:56.747Z,99.99
2016-10-08T00:10:38.479Z,99.99
2016-10-08T00:11:20.202Z,99.99
2016-10-08T00:12:01.980Z,99.99
2016-10-08T00:12:43.802Z,99.99
2016-10-08T00:13:25.547Z,99.99
2016-10-08T00:14:07.303Z,99.99
2016-10-08T00:14:49.065Z,99.99
2016-10-08T00:15:30.819Z,99.99
2016-10-08T00:17:20.209Z,99.99
2016-10-08T00:18:02.012Z,99.99
2016-10-08T00:18:43.769Z,99.99
2016-10-08T00:19:25.515Z,99.99
2016-10-08T00:21:25.652Z,99.99
2016-10-08T00:22:07.425Z,99.99
2016-10-08T00:24:07.427Z,99.99
2016-10-08T00:24:49.122Z,99.99
2016-10-08T00:25:30.885Z,99.99
2016-10-08T00:26:12.533Z,99.99
2016-10-08T00:26:54.269Z,99.99
2016-10-08T00:27:36.019Z,99.99
2016-10-08T00:28:17.775Z,99.99
2016-10-08T00:28:59.531Z,99.99
2016-10-08T00:29:41.071Z,99.99
2016-10-08T00:30:22.819Z,99.99
2016-10-08T00:31:04.417Z,99.99
2016-10-08T00:31:46.112Z,99.99
2016-10-08T00:32:27.659Z,99.99
2016-10-08T00:33:09.380Z,99.99
2016-10-08T00:33:50.899Z,99.99
2016-10-08T00:34:32.732Z,99.99
2016-10-08T00:35:14.519Z,99.99
2016-10-08T00:35:56.251Z,99.99
2016-10-08T00:36:37.988Z,99.99
2016-10-08T00:37:19.728Z,99.99
2016-10-08T00:38:01.362Z,99.99
2016-10-08T00:38:43.060Z,99.99
2016-10-08T00:39:24.792Z,99.99
2016-10-08T00:41:19.558Z,99.99
2016-10-08T00:42:01.262Z,99.99
2016-10-08T00:42:43.030Z,99.99
2016-10-08T00:43:24.764Z,99.99
2016-10-08T00:45:24.839Z,99.99
2016-10-08T00:46:06.408Z,99.99
2016-10-08T00:46:48.105Z,99.99
2016-10-08T00:47:29.832Z,99.99
2016-10-08T00:48:11.607Z,99.99
2016-10-08T00:48:53.231Z,99.99
2016-10-08T00:49:34.915Z,99.99
2016-10-08T00:50:16.593Z,99.99
2016-10-08T00:50:58.249Z,99.99
2016-10-08T00:51:39.944Z,99.99
2016-10-08T00:52:21.630Z,99.99
2016-10-08T00:53:03.406Z,99.99
2016-10-08T00:54:52.789Z,99.99
2016-10-08T00:55:34.440Z,99.99
2016-10-08T00:56:15.944Z,99.99
2016-10-08T00:56:56.470Z,99.99
2016-10-08T00:57:36.995Z,99.99
2016-10-08T00:58:17.521Z,99.99
2016-10-08T00:58:58.032Z,99.99
2016-10-08T00:59:38.544Z,99.99
2016-10-08T01:00:19.045Z,99.99
2016-10-08T01:00:59.569Z,99.99
2016-10-08T01:01:40.109Z,99.99
2016-10-08T01:02:20.637Z,99.99
2016-10-08T01:03:01.125Z,99.99
2016-10-08T01:03:41.634Z,99.99
2016-10-08T01:04:22.143Z,99.99
2016-10-08T01:05:02.645Z,99.99
2016-10-08T01:05:43.131Z,99.99
2016-10-08T01:06:23.658Z,99.99
2016-10-08T01:07:04.144Z,99.99
2016-10-08T01:07:44.675Z,99.99
2016-10-08T01:08:25.219Z,99.99
2016-10-08T01:09:05.757Z,99.99
2016-10-08T01:09:46.297Z,99.99
2016-10-08T01:10:26.846Z,99.99
2016-10-08T01:11:07.341Z,99.99
2016-10-08T01:11:47.866Z,99.99
2016-10-08T01:12:28.394Z,99.99
2016-10-08T01:13:08.955Z,99.99
2016-10-08T01:13:49.478Z,99.99
2016-10-08T01:14:30.044Z,99.99
2016-10-08T01:15:10.544Z,99.99
2016-10-08T01:15:51.049Z,99.99
2016-10-08T01:16:31.563Z,99.99
2016-10-08T01:17:12.069Z,99.99
2016-10-08T01:17:52.585Z,99.99
2016-10-08T01:18:33.094Z,99.99
2016-10-08T01:19:13.608Z,99.99
2016-10-08T01:19:54.153Z,99.99
2016-10-08T01:20:34.692Z,99.99
2016-10-08T01:21:15.253Z,99.99
2016-10-08T01:21:55.770Z,99.99
2016-10-08T01:22:36.309Z,99.99
2016-10-08T01:23:16.832Z,99.99
2016-10-08T01:23:57.376Z,99.99
2016-10-08T01:24:37.916Z,99.99
2016-10-08T01:25:18.456Z,99.99
2016-10-08T01:25:58.983Z,99.99
2016-10-08T01:26:39.503Z,99.99
2016-10-08T01:27:20.031Z,99.99
2016-10-08T01:28:00.562Z,99.99
2016-10-08T01:28:41.075Z,99.99
2016-10-08T01:29:21.579Z,99.99
2016-10-08T01:30:02.109Z,99.99
2016-10-08T01:30:42.667Z,99.99
2016-10-08T01:31:23.198Z,99.99
2016-10-08T01:32:03.731Z,99.99
2016-10-08T01:32:44.242Z,99.99
2016-10-08T01:33:24.756Z,99.99
2016-10-08T01:34:05.276Z,99.99
2016-10-08T01:34:45.801Z,99.99
2016-10-08T01:35:26.337Z,99.99
2016-10-08T06:14:57.809Z,99.99
2016-10-08T06:15:39.932Z,99.99
2016-10-08T06:16:20.454Z,99.99
2016-10-08T06:17:01.050Z,99.99
2016-10-08T06:17:41.531Z,99.99
2016-10-08T06:18:22.018Z,99.99
2016-10-08T06:19:02.603Z,99.99
2016-10-08T06:19:43.103Z,99.99
2016-10-08T06:20:23.589Z,99.99
2016-10-08T06:21:04.127Z,99.99
2016-10-08T06:21:44.592Z,99.99
2016-10-08T06:22:25.118Z,99.99
2016-10-08T06:23:05.771Z,99.99
2016-10-08T06:23:46.247Z,99.99
2016-10-08T06:24:26.727Z,99.99
2016-10-08T06:25:07.209Z,99.99
2016-10-08T06:25:47.717Z,99.99
2016-10-08T06:26:28.218Z,99.99
2016-10-08T06:27:08.727Z,99.99
2016-10-08T06:27:49.256Z,99.99
2016-10-08T06:28:29.798Z,99.99
2016-10-08T06:29:10.346Z,99.99
2016-10-08T06:29:50.898Z,99.99
2016-10-08T06:30:31.620Z,99.99
2016-10-08T06:31:12.170Z,99.99
2016-10-08T06:31:52.699Z,99.99
2016-10-08T06:32:33.239Z,99.99
2016-10-08T06:33:13.796Z,99.99
2016-10-08T06:33:54.261Z,99.99
2016-10-08T06:34:34.747Z,99.99
2016-10-08T06:35:15.232Z,99.99
2016-10-08T06:35:55.716Z,99.99
2016-10-08T06:36:36.219Z,99.99
2016-10-08T06:37:16.704Z,99.99
2016-10-08T06:37:57.192Z,99.99
2016-10-08T06:38:37.705Z,99.99
2016-10-08T06:39:18.257Z,99.99
2016-10-08T06:39:58.795Z,99.99
2016-10-08T06:40:39.285Z,99.99
2016-10-08T06:41:19.839Z,99.99
2016-10-08T06:42:00.324Z,99.99
2016-10-08T06:42:40.826Z,99.99
2016-10-08T06:43:21.301Z,99.99
2016-10-08T06:44:01.854Z,99.99
2016-10-08T06:44:42.372Z,99.99
2016-10-08T06:45:22.910Z,99.99
2016-10-08T06:46:03.459Z,99.99
2016-10-08T06:46:43.997Z,99.99
2016-10-08T06:47:24.513Z,99.99
2016-10-08T06:48:05.001Z,99.99
2016-10-08T06:48:45.487Z,99.99
2016-10-08T06:49:25.972Z,99.99
2016-10-08T06:50:06.457Z,99.99
2016-10-08T06:50:46.942Z,99.99
2016-10-08T06:51:27.454Z,99.99
2016-10-08T06:52:07.969Z,99.99
2016-10-08T06:52:48.482Z,99.99
2016-10-08T06:53:28.963Z,99.99
2016-10-08T06:54:09.472Z,99.99
2016-10-08T06:54:49.948Z,99.99
2016-10-08T06:55:30.441Z,99.99
2016-10-08T06:56:10.947Z,99.99
2016-10-08T06:56:51.493Z,99.99
2016-10-08T06:57:31.971Z,99.99
2016-10-08T06:58:12.480Z,99.99
2016-10-08T06:58:52.956Z,99.99
2016-10-08T06:59:33.467Z,99.99
2016-10-08T07:00:13.946Z,99.99
2016-10-08T07:00:54.436Z,99.99
2016-10-08T07:01:34.944Z,99.99
2016-10-08T07:02:15.436Z,99.99
2016-10-08T07:02:55.991Z,99.99
2016-10-08T07:03:36.447Z,99.99
2016-10-08T07:04:16.991Z,99.99
2016-10-08T07:04:57.533Z,99.99
2016-10-08T07:05:38.026Z,99.99
2016-10-08T07:06:18.569Z,99.99
2016-10-08T07:06:59.078Z,99.99
2016-10-08T07:07:39.579Z,99.99
2016-10-08T07:08:20.101Z,99.99
2016-10-08T07:09:00.603Z,99.99
2016-10-08T07:09:41.146Z,99.99
2016-10-08T07:10:21.701Z,99.99
2016-10-08T07:11:02.272Z,99.99
2016-10-08T07:11:42.825Z,99.99
2016-10-08T07:12:23.373Z,99.99
2016-10-08T07:13:03.907Z,99.99
2016-10-08T07:13:44.441Z,99.99
2016-10-08T07:14:24.912Z,99.99
2016-10-08T07:15:05.425Z,99.99
2016-10-08T07:15:45.968Z,99.99
2016-10-08T07:16:26.475Z,99.99
2016-10-08T07:17:07.005Z,99.99
2016-10-08T07:17:47.524Z,99.99
2016-10-08T07:18:28.010Z,99.99
2016-10-08T07:19:08.528Z,99.99
2016-10-08T07:19:50.897Z,99.99
2016-10-08T07:20:31.505Z,99.99
2016-10-08T07:21:11.985Z,99.99
2016-10-08T07:21:52.502Z,99.99
2016-10-08T07:22:33.022Z,99.99
2016-10-08T07:23:13.565Z,99.99
2016-10-08T07:23:54.024Z,99.99
2016-10-08T07:24:34.551Z,99.99
2016-10-08T07:25:15.068Z,99.99
2016-10-08T07:25:55.615Z,99.99
2016-10-08T07:26:36.158Z,99.99
2016-10-08T07:27:16.677Z,99.99
2016-10-08T07:27:57.206Z,99.99
2016-10-08T07:28:37.749Z,99.99
2016-10-08T07:29:18.313Z,99.99
2016-10-08T07:29:58.859Z,99.99
2016-10-08T07:30:39.354Z,99.99
2016-10-08T07:31:19.868Z,99.99
2016-10-08T07:32:00.385Z,99.99
2016-10-08T07:32:40.930Z,99.99
2016-10-08T07:33:21.473Z,99.99
2016-10-08T07:34:02.011Z,99.99
2016-10-08T07:34:42.540Z,99.99
2016-10-08T07:35:23.077Z,99.99
2016-10-08T07:36:03.608Z,99.99
2016-10-08T07:36:44.144Z,99.99
2016-10-08T07:37:24.688Z,99.99
2016-10-08T07:38:05.226Z,99.99
2016-10-08T07:38:45.762Z,99.99
2016-10-08T07:39:26.289Z,99.99
2016-10-08T07:40:06.805Z,99.99
2016-10-08T07:40:47.342Z,99.99
2016-10-08T07:41:27.887Z,99.99
2016-10-08T07:42:08.462Z,99.99
2016-10-08T07:42:48.985Z,99.99
2016-10-08T07:43:29.522Z,99.99
2016-10-08T07:44:10.068Z,99.99
2016-10-08T07:44:50.614Z,99.99
2016-10-08T07:45:31.167Z,99.99
2016-10-08T07:46:11.678Z,99.99
2016-10-08T07:46:53.729Z,99.99
2016-10-08T07:47:34.267Z,99.99
2016-10-08T07:48:14.803Z,99.99
2016-10-08T07:48:55.331Z,99.99
2016-10-08T07:49:35.859Z,99.99
2016-10-08T07:50:16.401Z,99.99
2016-10-08T07:50:56.926Z,99.99
2016-10-08T07:51:37.470Z,99.99
2016-10-08T07:52:18.006Z,99.99
2016-10-08T07:52:58.531Z,99.99
2016-10-08T07:53:39.027Z,99.99
2016-10-08T07:54:19.552Z,99.99
2016-10-08T07:55:00.092Z,99.99
2016-10-08T07:55:40.607Z,99.99
2016-10-08T07:56:21.127Z,99.99
2016-10-08T07:57:01.653Z,99.99
2016-10-08T07:57:42.146Z,99.99
2016-10-08T07:58:22.645Z,99.99
2016-10-08T07:59:03.160Z,99.99
2016-10-08T07:59:43.679Z,99.99
2016-10-08T08:00:24.206Z,99.99
2016-10-08T08:01:04.714Z,99.99
2016-10-08T08:01:45.206Z,99.99
2016-10-08T08:02:25.684Z,99.99
2016-10-08T08:03:06.195Z,99.99
2016-10-08T08:03:46.714Z,99.99
2016-10-08T08:04:27.253Z,99.99
2016-10-08T08:05:07.795Z,99.99
2016-10-08T08:05:48.339Z,99.99
2016-10-08T08:06:28.897Z,99.99
2016-10-08T08:07:09.438Z,99.99
2016-10-08T08:07:49.975Z,99.99
2016-10-08T08:08:30.514Z,99.99
2016-10-08T08:09:11.046Z,99.99
2016-10-08T08:09:51.591Z,99.99
2016-10-08T08:10:32.113Z,99.99
2016-10-08T08:11:12.649Z,99.99
2016-10-08T08:11:53.181Z,99.99
2016-10-08T08:12:33.731Z,99.99
2016-10-08T08:13:14.260Z,99.99
2016-10-08T08:13:54.767Z,99.99
2016-10-08T08:14:35.287Z,99.99
2016-10-08T08:15:15.801Z,99.99
2016-10-08T08:15:56.349Z,99.99
2016-10-08T08:16:36.899Z,99.99
2016-10-08T08:17:17.440Z,99.99
2016-10-08T08:17:57.958Z,99.99
2016-10-08T08:18:38.478Z,99.99
2016-10-08T08:19:18.974Z,99.99
2016-10-08T08:19:59.488Z,99.99
2016-10-08T08:20:40.002Z,99.99
2016-10-08T08:21:20.528Z,99.99
2016-10-08T08:22:01.044Z,99.99
2016-10-08T08:22:41.563Z,99.99
2016-10-08T08:23:22.102Z,99.99
2016-10-08T08:24:02.649Z,99.99
2016-10-08T08:24:43.197Z,99.99
2016-10-08T08:25:23.746Z,99.99
2016-10-08T08:26:04.259Z,99.99
2016-10-08T08:26:44.787Z,99.75
2016-10-08T08:27:25.312Z,99.89
2016-10-08T08:28:05.850Z,99.89
2016-10-08T08:28:46.411Z,99.51
2016-10-08T08:29:26.958Z,99.99
2016-10-08T08:30:07.521Z,99.89
2016-10-08T08:30:48.078Z,99.99
2016-10-08T08:31:28.629Z,99.51
2016-10-08T08:32:09.179Z,99.99
2016-10-08T08:32:49.731Z,99.99
2016-10-08T08:33:30.283Z,99.8
2016-10-08T08:34:10.817Z,99.7
2016-10-08T08:34:51.362Z,99.99
2016-10-08T08:35:31.906Z,99.89
2016-10-08T08:36:12.447Z,99.99
2016-10-08T08:36:52.966Z,99.89
2016-10-08T08:37:33.516Z,99.41
2016-10-08T08:38:14.050Z,99.41
2016-10-08T08:38:54.583Z,99.51
2016-10-08T08:39:35.110Z,99.6
2016-10-08T08:40:15.650Z,99.41
2016-10-08T08:40:56.210Z,99.41
2016-10-08T08:41:36.741Z,99.41
2016-10-08T08:42:17.287Z,99.51
2016-10-08T08:42:57.842Z,98.65
2016-10-08T08:43:38.360Z,98.85
2016-10-08T08:44:18.896Z,99.04
2016-10-08T08:44:59.397Z,98.85
2016-10-08T08:45:39.953Z,99.6
2016-10-08T08:46:20.495Z,99.51
2016-10-08T08:47:01.029Z,99.95
2016-10-08T08:47:41.571Z,99.66
2016-10-08T08:48:22.109Z,99.08
2016-10-08T08:49:02.651Z,98.32
2016-10-08T08:49:43.181Z,98.85
2016-10-08T08:50:23.727Z,99.13
2016-10-08T08:51:04.274Z,98.42
2016-10-08T08:51:44.810Z,98.42
2016-10-08T08:52:25.398Z,97.18
2016-10-08T08:53:05.948Z,96.84
2016-10-08T08:53:46.497Z,96.13
2016-10-08T08:54:27.047Z,95.07
2016-10-08T08:55:07.573Z,93.65
2016-10-08T08:55:48.184Z,92.45
2016-10-08T08:56:28.722Z,92.45
2016-10-08T08:57:09.266Z,92.16
2016-10-08T08:57:49.813Z,92.16
2016-10-08T08:58:30.365Z,91.44
2016-10-08T08:59:10.892Z,90.1
2016-10-08T08:59:51.412Z,89.15
2016-10-08T09:00:31.951Z,88.48
2016-10-08T09:01:12.510Z,88.52
2016-10-08T09:01:53.047Z,88.04
2016-10-08T09:02:33.543Z,87.85
2016-10-08T09:03:14.056Z,86.55
2016-10-08T09:03:54.605Z,85.79
2016-10-08T09:04:35.127Z,85.6
2016-10-08T09:05:15.646Z,85.79
2016-10-08T09:05:56.178Z,85.69
2016-10-08T09:06:36.722Z,85.54
2016-10-08T09:07:17.242Z,85.25
2016-10-08T09:07:57.787Z,84.68
2016-10-08T09:08:38.345Z,84.68
2016-10-08T09:09:18.865Z,83.86
2016-10-08T09:09:59.400Z,82.9
2016-10-08T09:10:39.944Z,82.71
2016-10-08T09:11:20.494Z,82.14
2016-10-08T09:12:01.011Z,81.46
2016-10-08T09:12:41.545Z,81.22
2016-10-08T09:13:22.066Z,80.07
2016-10-08T09:14:02.620Z,78.92
2016-10-08T09:14:43.167Z,78.44
2016-10-08T09:15:23.727Z,77.48
2016-10-08T09:16:04.279Z,76.94
2016-10-08T09:16:44.830Z,77.23
2016-10-08T09:17:25.381Z,76.17
2016-10-08T09:18:05.928Z,76.07
2016-10-08T09:18:46.505Z,75.6
2016-10-08T09:19:27.040Z,75.45
2016-10-08T09:20:07.589Z,75.73
2016-10-08T09:20:48.124Z,74.87
2016-10-08T09:21:28.682Z,74.23
2016-10-08T09:22:09.191Z,73.56
2016-10-08T09:22:49.716Z,71.93
2016-10-08T09:23:30.250Z,71.16
2016-10-08T09:24:10.829Z,70.39
2016-10-08T09:24:51.343Z,69.95
2016-10-08T09:25:31.888Z,70.23
2016-10-08T09:26:12.437Z,69.85
2016-10-08T09:26:52.989Z,69.98
2016-10-08T09:27:33.583Z,69.79
2016-10-08T09:28:14.112Z,69.82
2016-10-08T09:28:54.637Z,69.06
2016-10-08T09:29:35.191Z,68.19
2016-10-08T09:30:15.742Z,67.74
2016-10-08T09:30:56.304Z,67.22
2016-10-08T09:31:36.869Z,66.17
2016-10-08T09:32:17.413Z,66.04
2016-10-08T09:32:57.966Z,65.66
2016-10-08T09:33:38.520Z,65.33
2016-10-08T09:34:19.054Z,66.46
2016-10-08T09:34:59.599Z,67.47
2016-10-08T09:35:40.155Z,68.15
2016-10-08T09:36:20.706Z,69.2
2016-10-08T09:37:01.252Z,69.3
2016-10-08T09:37:41.877Z,69.59
2016-10-08T09:38:22.391Z,69.49
2016-10-08T09:39:02.939Z,68.53
2016-10-08T09:39:43.493Z,67.38
2016-10-08T09:40:24.045Z,66.61
2016-10-08T09:41:04.593Z,65.91
2016-10-08T09:41:45.135Z,65.43
2016-10-08T09:42:25.653Z,66.39
2016-10-08T09:43:06.188Z,66.67
2016-10-08T09:43:46.737Z,66.77
2016-10-08T09:44:27.518Z,66.19
2016-10-08T09:45:08.072Z,66.64
2016-10-08T09:45:48.587Z,66.06
2016-10-08T09:46:29.133Z,66.35
2016-10-08T09:47:09.696Z,66.32
2016-10-08T09:47:50.237Z,66.99
2016-10-08T09:48:30.791Z,67.28
2016-10-08T09:49:11.324Z,67.18
2016-10-08T09:49:51.867Z,67.22
2016-10-08T09:50:32.461Z,66.74
2016-10-08T09:51:13.012Z,66.29
2016-10-08T09:51:53.561Z,66.86
2016-10-08T09:52:34.103Z,66.49
2016-10-08T09:53:14.654Z,66.67
2016-10-08T09:53:55.181Z,66.39
2016-10-08T09:54:35.734Z,65.62
2016-10-08T09:55:16.315Z,65.72
2016-10-08T09:55:56.828Z,65.43
2016-10-08T09:56:37.387Z,65.2
2016-10-08T09:57:17.946Z,65.39
2016-10-08T09:57:58.493Z,65.2
2016-10-08T09:58:39.030Z,65.2
2016-10-08T09:59:19.582Z,65.11
2016-10-08T10:00:00.210Z,65.36
2016-10-08T10:00:40.740Z,65.36
2016-10-08T10:01:21.290Z,65.17
2016-10-08T10:02:01.832Z,65.71
2016-10-08T10:02:42.372Z,66.03
2016-10-08T10:03:22.903Z,65.91
2016-10-08T10:04:03.433Z,66.48
2016-10-08T10:04:43.975Z,66.29
2016-10-08T10:05:24.506Z,66.58
2016-10-08T10:06:05.045Z,65.42
2016-10-08T10:06:45.578Z,65.81
2016-10-08T10:07:26.116Z,65.81
2016-10-08T10:08:06.665Z,65.81
2016-10-08T10:08:47.196Z,65.42
2016-10-08T10:09:27.723Z,65.81
2016-10-08T10:10:08.278Z,65.71
2016-10-08T10:10:48.788Z,65.42
2016-10-08T10:11:29.322Z,66.38
2016-10-08T10:12:09.847Z,66.19
2016-10-08T10:12:50.379Z,66.48
2016-10-08T10:13:30.925Z,66.25
2016-10-08T10:14:11.444Z,65.78
2016-10-08T10:14:52.004Z,65.78
2016-10-08T10:15:32.553Z,66.25
2016-10-08T10:16:13.091Z,66.06
2016-10-08T10:16:53.634Z,66.35
2016-10-08T10:17:34.182Z,66.41
2016-10-08T10:18:14.703Z,66.61
2016-10-08T10:18:55.260Z,66.41
2016-10-08T10:19:35.779Z,66.41
2016-10-08T10:20:16.317Z,66.7
2016-10-08T10:20:56.863Z,67.37
2016-10-08T10:21:37.382Z,67.18
2016-10-08T10:22:17.923Z,66.83
2016-10-08T10:22:58.456Z,66.25
2016-10-08T10:23:38.990Z,65.91
2016-10-08T10:24:19.514Z,65.71
2016-10-08T10:25:00.054Z,65.08
2016-10-08T10:25:40.609Z,64.98
2016-10-08T10:26:21.156Z,63.73
2016-10-08T10:27:01.698Z,63.06
2016-10-08T10:27:42.243Z,62.49
2016-10-08T10:28:22.784Z,62.49
2016-10-08T10:29:03.360Z,62.39
2016-10-08T10:29:43.910Z,62.49
2016-10-08T10:30:24.464Z,62.49
2016-10-08T10:31:05.009Z,62.52
2016-10-08T10:31:45.554Z,62.71
2016-10-08T10:32:26.100Z,62.65
2016-10-08T10:33:06.639Z,62.07
2016-10-08T10:33:47.176Z,61.62
2016-10-08T10:34:27.712Z,60.75
2016-10-08T10:35:08.246Z,60.85
2016-10-08T10:35:48.784Z,60.11
2016-10-08T10:36:29.339Z,60.02
2016-10-08T10:37:09.901Z,60.11
2016-10-08T10:37:50.447Z,60.21
2016-10-08T10:38:30.990Z,60.21
2016-10-08T10:39:11.541Z,59.44
2016-10-08T10:39:52.045Z,58.87
2016-10-08T10:40:32.583Z,58.1
2016-10-08T10:41:13.145Z,58
2016-10-08T10:41:53.703Z,57.23
2016-10-08T10:42:34.229Z,56.95
2016-10-08T10:43:14.773Z,56.18
2016-10-08T10:43:55.311Z,55.53
2016-10-08T10:44:35.856Z,55.27
2016-10-08T10:45:16.434Z,55.27
2016-10-08T10:45:56.982Z,55.2
2016-10-08T10:46:37.513Z,54.46
2016-10-08T10:47:18.043Z,54.08
2016-10-08T10:47:58.589Z,52.47
2016-10-08T10:48:39.143Z,52.3
2016-10-08T10:49:19.693Z,51.92
2016-10-08T10:50:00.244Z,50.88
2016-10-08T10:50:40.798Z,50.3
2016-10-08T10:51:21.349Z,50.42
2016-10-08T10:52:01.919Z,49.17
2016-10-08T10:52:42.452Z,48.03
2016-10-08T10:53:23.006Z,48.23
2016-10-08T10:54:03.686Z,46.81
2016-10-08T10:54:44.235Z,46.13
2016-10-08T10:55:24.777Z,46.51
2016-10-08T10:56:05.328Z,46.13
2016-10-08T10:56:45.856Z,45.75
2016-10-08T10:57:26.443Z,45.38
2016-10-08T10:58:06.961Z,45.57
2016-10-08T10:58:47.506Z,45.18
2016-10-08T10:59:28.035Z,44.82
2016-10-08T11:00:08.552Z,44.82
2016-10-08T11:00:49.061Z,44.34
2016-10-08T11:01:29.611Z,43.88
2016-10-08T11:02:10.163Z,42.82
2016-10-08T11:02:50.710Z,42.35
2016-10-08T11:03:31.234Z,41.97
2016-10-08T11:04:11.802Z,41.19
2016-10-08T11:04:52.331Z,41
2016-10-08T11:05:32.845Z,39.64
2016-10-08T11:06:13.402Z,38.58
2016-10-08T11:06:53.958Z,37.02
2016-10-08T11:07:34.504Z,36.82
2016-10-08T11:08:15.172Z,37.02
2016-10-08T11:08:55.730Z,37.12
2016-10-08T11:09:36.247Z,37.6
2016-10-08T11:10:16.794Z,38.37
2016-10-08T11:10:57.341Z,38.25
2016-10-08T11:11:37.873Z,38.25
2016-10-08T11:12:18.423Z,38.62
2016-10-08T11:12:58.955Z,38.89
2016-10-08T11:13:39.491Z,39.45
2016-10-08T11:14:20.051Z,39.82
2016-10-08T11:15:00.592Z,40.57
2016-10-08T11:15:41.158Z,41.24
2016-10-08T11:16:21.704Z,41.99
2016-10-08T11:17:02.254Z,42.57
2016-10-08T11:17:42.815Z,42.93
2016-10-08T11:18:23.326Z,43.59
2016-10-08T11:19:03.826Z,44.07
2016-10-08T11:19:44.372Z,44.74
2016-10-08T11:20:24.982Z,45.78
2016-10-08T11:21:05.520Z,46.36
2016-10-08T11:21:46.059Z,46.91
2016-10-08T11:22:26.568Z,46.91
2016-10-08T11:23:07.203Z,47.27
2016-10-08T11:23:47.798Z,47.94
2016-10-08T11:24:28.308Z,48.59
2016-10-08T11:25:08.841Z,48.88
2016-10-08T11:25:49.361Z,49.55
2016-10-08T11:26:29.927Z,50.39
2016-10-08T11:27:10.477Z,50.58
2016-10-08T11:27:51.031Z,51.45
2016-10-08T11:28:31.539Z,51.71
2016-10-08T11:29:12.060Z,52.09
2016-10-08T11:29:52.592Z,52.09
2016-10-08T11:30:33.132Z,51.97
2016-10-08T11:31:13.676Z,51.97
2016-10-08T11:31:54.216Z,52.42
2016-10-08T11:32:34.773Z,52.52
2016-10-08T11:33:15.438Z,53
2016-10-08T11:33:55.869Z,53.77
2016-10-08T11:34:36.423Z,53.86
2016-10-08T11:35:16.985Z,54.03
2016-10-08T11:35:57.514Z,54.12
2016-10-08T11:36:38.046Z,54.6
2016-10-08T11:37:18.574Z,54.6
2016-10-08T11:37:59.125Z,54.96
2016-10-08T11:38:39.666Z,55.15
2016-10-08T11:39:20.175Z,55.44
2016-10-08T11:40:00.699Z,55.82
2016-10-08T11:40:41.230Z,56.3
2016-10-08T11:41:21.752Z,56.75
2016-10-08T11:42:02.280Z,58.02
2016-10-08T11:42:42.781Z,57.7
2016-10-08T11:43:23.332Z,58.47
2016-10-08T11:44:03.814Z,58.18
2016-10-08T11:44:44.377Z,58.95
2016-10-08T11:45:24.913Z,58.76
2016-10-08T11:46:05.459Z,59.43
2016-10-08T11:46:46.016Z,59.91
2016-10-08T11:47:26.538Z,59.91
2016-10-08T11:48:07.072Z,60.58
2016-10-08T11:48:47.601Z,60.29
2016-10-08T11:49:28.139Z,60.29
2016-10-08T11:50:08.693Z,60.77
2016-10-08T11:50:49.209Z,60.96
2016-10-08T11:51:29.787Z,61.72
2016-10-08T11:52:10.315Z,61.54
2016-10-08T11:52:50.865Z,62.2
2016-10-08T11:53:31.385Z,62.3
2016-10-08T11:54:11.910Z,62.59
2016-10-08T11:54:52.419Z,62.37
2016-10-08T11:55:32.965Z,62.27
2016-10-08T11:56:13.505Z,62.37
2016-10-08T11:56:54.056Z,62.65
2016-10-08T11:57:34.601Z,62.27
2016-10-08T11:58:15.145Z,62.2
2016-10-08T11:58:55.646Z,62.4
2016-10-08T11:59:36.167Z,61.63
2016-10-08T12:00:16.701Z,61.34
2016-10-08T12:00:57.212Z,61.25
2016-10-08T12:01:37.719Z,60.77
2016-10-08T12:02:18.246Z,60.67
2016-10-08T12:02:58.792Z,60.96
2016-10-08T12:03:39.329Z,60.86
2016-10-08T12:04:19.893Z,60.86
2016-10-08T12:05:00.418Z,60.58
2016-10-08T12:05:40.986Z,60.77
2016-10-08T12:06:21.525Z,60.86
2016-10-08T12:07:02.046Z,60.48
2016-10-08T12:07:42.596Z,60.38
2016-10-08T12:08:23.135Z,60.19
2016-10-08T12:09:03.684Z,59.91
2016-10-08T12:09:44.229Z,59.52
2016-10-08T12:10:24.780Z,59.52
2016-10-08T12:11:05.330Z,59.72
2016-10-08T12:11:45.853Z,60
2016-10-08T12:12:26.376Z,59.91
2016-10-08T12:13:06.900Z,60
2016-10-08T12:13:47.447Z,59.97
2016-10-08T12:14:28.003Z,59.88
2016-10-08T12:15:08.552Z,59.97
2016-10-08T12:15:49.116Z,59.88
2016-10-08T12:16:29.637Z,59.78
2016-10-08T12:17:10.175Z,60.26
2016-10-08T12:17:50.705Z,60.55
2016-10-08T12:18:31.247Z,60.74
2016-10-08T12:19:11.815Z,60.64
2016-10-08T12:19:52.341Z,60.83
2016-10-08T12:20:32.883Z,61.12
2016-10-08T12:21:13.421Z,61.41
2016-10-08T12:21:53.970Z,61.57
2016-10-08T12:22:34.468Z,61.76
2016-10-08T12:23:14.996Z,62.33
2016-10-08T12:23:55.504Z,62.33
2016-10-08T12:24:36.044Z,62.43
2016-10-08T12:25:16.605Z,62.33
2016-10-08T12:25:57.127Z,62.62
2016-10-08T12:26:37.677Z,62.52
2016-10-08T12:27:18.232Z,62.81
2016-10-08T12:27:58.780Z,63
2016-10-08T12:28:39.346Z,63.19
2016-10-08T12:29:19.929Z,63.29
2016-10-08T12:30:00.477Z,63.39
2016-10-08T12:30:41.002Z,63.7
2016-10-08T12:31:21.547Z,63.48
2016-10-08T12:32:02.093Z,63.86
2016-10-08T12:32:42.646Z,63.39
2016-10-08T12:33:23.181Z,63.29
2016-10-08T12:34:03.747Z,63.13
2016-10-08T12:34:44.275Z,63.32
2016-10-08T12:35:24.818Z,63.29
2016-10-08T12:36:05.359Z,63.19
2016-10-08T12:36:45.923Z,63.6
2016-10-08T12:37:26.465Z,63.42
2016-10-08T12:38:06.995Z,63.42
2016-10-08T12:38:47.542Z,63.32
2016-10-08T12:39:28.078Z,62.84
2016-10-08T12:40:08.632Z,62.84
2016-10-08T12:40:49.162Z,62.46
2016-10-08T12:41:29.708Z,62.55
2016-10-08T12:42:10.234Z,62.17
2016-10-08T12:42:50.748Z,61.69
2016-10-08T12:43:31.277Z,61.31
2016-10-08T12:44:11.808Z,61.12
2016-10-08T12:44:52.359Z,61.12
2016-10-08T12:45:32.910Z,61.51
2016-10-08T12:46:13.442Z,61.41
2016-10-08T12:46:53.981Z,61.12
2016-10-08T12:47:34.530Z,61.41
2016-10-08T12:48:15.055Z,61.12
2016-10-08T12:48:55.564Z,60.64
2016-10-08T12:49:36.075Z,61.02
2016-10-08T12:50:16.621Z,60.83
2016-10-08T12:50:57.140Z,61.05
2016-10-08T12:51:37.622Z,61.12
2016-10-08T12:52:18.156Z,61.31
2016-10-08T12:52:58.711Z,60.86
2016-10-08T12:53:39.227Z,60.48
2016-10-08T12:54:19.773Z,59.97
2016-10-08T12:55:00.309Z,59.59
2016-10-08T12:55:40.881Z,59.2
2016-10-08T12:56:21.438Z,59.11
2016-10-08T12:57:01.969Z,58.66
2016-10-08T12:57:42.514Z,59.11
2016-10-08T12:58:23.069Z,58.66
2016-10-08T12:59:03.610Z,58.34
2016-10-08T12:59:44.144Z,58.15
2016-10-08T13:00:24.690Z,57.97
2016-10-08T13:01:05.237Z,57.99
2016-10-08T13:01:45.808Z,57.61
2016-10-08T13:02:26.328Z,57.7
2016-10-08T13:03:06.897Z,58.09
2016-10-08T13:03:47.427Z,58.37
2016-10-08T13:04:27.964Z,58.37
2016-10-08T13:05:08.503Z,57.9
2016-10-08T13:05:49.030Z,58.28
2016-10-08T13:06:29.578Z,57.7
2016-10-08T13:07:10.124Z,57.7
2016-10-08T13:07:50.672Z,57.99
2016-10-08T13:08:31.214Z,57.61
2016-10-08T13:09:11.757Z,57.23
2016-10-08T13:09:52.302Z,56.94
2016-10-08T13:10:32.835Z,56.84
2016-10-08T13:11:13.384Z,57.04
2016-10-08T13:11:53.911Z,57.13
2016-10-08T13:12:34.432Z,57.23
2016-10-08T13:13:14.960Z,57.8
2016-10-08T13:13:55.525Z,57.32
2016-10-08T13:14:36.081Z,57.8
2016-10-08T13:15:16.629Z,57.7
2016-10-08T13:15:57.180Z,57.7
2016-10-08T13:16:37.724Z,57.9
2016-10-08T13:18:52.003Z,58.28
2016-10-08T13:19:32.552Z,58.37
2016-10-08T13:20:13.084Z,58.37
2016-10-08T13:20:53.630Z,58.66
2016-10-08T13:21:34.161Z,58.56
2016-10-08T13:22:14.702Z,58.95
2016-10-08T13:22:55.231Z,58.86
2016-10-08T13:23:35.761Z,59.33
2016-10-08T13:24:16.296Z,59.52
2016-10-08T13:24:56.836Z,59.52
2016-10-08T13:25:37.392Z,59.72
2016-10-08T13:26:17.939Z,59.91
2016-10-08T13:26:58.485Z,59.72
2016-10-08T13:27:39.030Z,59.62
2016-10-08T13:28:19.564Z,59.52
2016-10-08T13:29:00.100Z,59.33
2016-10-08T13:29:40.614Z,59.72
2016-10-08T13:30:21.162Z,59.52
2016-10-08T13:31:01.695Z,59.33
2016-10-08T13:31:42.241Z,59.43
2016-10-08T13:32:22.770Z,59.05
2016-10-08T13:33:03.292Z,58.86
2016-10-08T13:33:43.791Z,58.86
2016-10-08T13:34:24.290Z,59.05
2016-10-08T13:35:04.795Z,59.23
2016-10-08T13:35:45.321Z,59.33
2016-10-08T13:36:25.865Z,59.33